Athol, South Dakota
Current Conditions -  °F | °C
As of 12:53 AM on Saturday 20 Dec 2014 (Local Time) from KABR Reporting Station
Haze Haze  
Wind Chill: 18°   Ceiling: 500
Heat Index: 28°   Visibility: 4mi
Dew Point: 25°   Wind: 12mph
Humidity: 88%   Direction: 190°S
Pressure: 30.01"   Gusts: NA
Location:  45.027°N, 98.472°W
Report Text: KABR 200653Z AUTO 19010KT 4SM BR OVC005 M02/M04 A3001 RMK AO2 SLP180 T10221039
Loading
Personal Weather Stations






























Interactive Weather Map New forecast layout! Learn more

10-Day Weather Forecast

Advertisements
Track Severe Weather on mobile